sensor_id;sensor_type;location;lat;lon;timestamp;temperature;humidity
45233;DHT22;30969;51.052;17.056;2023-06-10T00:04:05;20.20;61.40
45233;DHT22;30969;51.052;17.056;2023-06-10T00:09:11;20.10;61.40
45233;DHT22;30969;51.052;17.056;2023-06-10T00:14:17;20.10;61.50
45233;DHT22;30969;51.052;17.056;2023-06-10T00:19:21;20.10;61.50
45233;DHT22;30969;51.052;17.056;2023-06-10T00:24:34;20.10;61.60
45233;DHT22;30969;51.052;17.056;2023-06-10T00:29:40;20.10;61.90
45233;DHT22;30969;51.052;17.056;2023-06-10T00:34:46;20.10;62.30
45233;DHT22;30969;51.052;17.056;2023-06-10T00:40:12;20.00;62.20
45233;DHT22;30969;51.052;17.056;2023-06-10T00:45:16;20.10;63.00
45233;DHT22;30969;51.052;17.056;2023-06-10T00:50:24;20.00;62.90
45233;DHT22;30969;51.052;17.056;2023-06-10T00:55:30;20.00;63.00
45233;DHT22;30969;51.052;17.056;2023-06-10T01:00:37;20.00;63.30
45233;DHT22;30969;51.052;17.056;2023-06-10T01:05:43;20.00;63.60
45233;DHT22;30969;51.052;17.056;2023-06-10T01:10:57;20.00;64.10
45233;DHT22;30969;51.052;17.056;2023-06-10T01:16:05;19.90;64.20
45233;DHT22;30969;51.052;17.056;2023-06-10T01:21:19;19.90;64.00
45233;DHT22;30969;51.052;17.056;2023-06-10T01:26:40;19.90;63.80
45233;DHT22;30969;51.052;17.056;2023-06-10T01:31:49;19.80;63.80
45233;DHT22;30969;51.052;17.056;2023-06-10T01:36:58;19.80;64.10
45233;DHT22;30969;51.052;17.056;2023-06-10T01:42:05;19.90;65.00
45233;DHT22;30969;51.052;17.056;2023-06-10T01:47:09;19.90;65.50
45233;DHT22;30969;51.052;17.056;2023-06-10T01:52:19;19.90;65.90
45233;DHT22;30969;51.052;17.056;2023-06-10T01:57:27;19.90;66.20
45233;DHT22;30969;51.052;17.056;2023-06-10T02:02:32;19.80;66.30
45233;DHT22;30969;51.052;17.056;2023-06-10T02:07:37;19.80;66.40
45233;DHT22;30969;51.052;17.056;2023-06-10T02:12:43;19.80;66.40
45233;DHT22;30969;51.052;17.056;2023-06-10T02:17:51;19.80;66.30
45233;DHT22;30969;51.052;17.056;2023-06-10T02:23:03;19.90;66.30
45233;DHT22;30969;51.052;17.056;2023-06-10T02:28:09;19.90;66.00
45233;DHT22;30969;51.052;17.056;2023-06-10T02:33:14;19.90;65.80
45233;DHT22;30969;51.052;17.056;2023-06-10T02:38:21;19.90;65.60
45233;DHT22;30969;51.052;17.056;2023-06-10T02:43:25;19.90;65.90
45233;DHT22;30969;51.052;17.056;2023-06-10T02:48:29;19.90;65.80
45233;DHT22;30969;51.052;17.056;2023-06-10T02:53:34;19.90;66.60
45233;DHT22;30969;51.052;17.056;2023-06-10T02:58:40;19.90;66.60
45233;DHT22;30969;51.052;17.056;2023-06-10T03:03:46;19.90;65.40
45233;DHT22;30969;51.052;17.056;2023-06-10T03:08:52;19.80;65.50
45233;DHT22;30969;51.052;17.056;2023-06-10T03:13:57;19.80;65.70
45233;DHT22;30969;51.052;17.056;2023-06-10T03:19:01;19.80;65.70
45233;DHT22;30969;51.052;17.056;2023-06-10T03:24:07;19.80;65.70
45233;DHT22;30969;51.052;17.056;2023-06-10T03:29:13;19.70;65.40
45233;DHT22;30969;51.052;17.056;2023-06-10T03:34:18;19.70;65.30
45233;DHT22;30969;51.052;17.056;2023-06-10T03:39:25;19.70;66.40
45233;DHT22;30969;51.052;17.056;2023-06-10T03:44:34;19.70;65.30
45233;DHT22;30969;51.052;17.056;2023-06-10T03:49:39;19.70;65.40
45233;DHT22;30969;51.052;17.056;2023-06-10T03:54:46;19.70;65.40
45233;DHT22;30969;51.052;17.056;2023-06-10T03:59:53;19.70;65.50
45233;DHT22;30969;51.052;17.056;2023-06-10T04:04:57;19.70;65.50
45233;DHT22;30969;51.052;17.056;2023-06-10T04:10:04;19.70;65.50
45233;DHT22;30969;51.052;17.056;2023-06-10T04:15:08;19.80;65.70
45233;DHT22;30969;51.052;17.056;2023-06-10T04:20:12;19.80;65.60
45233;DHT22;30969;51.052;17.056;2023-06-10T04:25:20;19.80;65.50
45233;DHT22;30969;51.052;17.056;2023-06-10T04:30:28;19.80;65.50
45233;DHT22;30969;51.052;17.056;2023-06-10T04:35:35;19.80;65.50
45233;DHT22;30969;51.052;17.056;2023-06-10T04:40:44;19.80;65.40
45233;DHT22;30969;51.052;17.056;2023-06-10T04:45:49;19.80;65.50
45233;DHT22;30969;51.052;17.056;2023-06-10T04:50:53;19.80;65.70
45233;DHT22;30969;51.052;17.056;2023-06-10T04:56:00;19.90;65.80
45233;DHT22;30969;51.052;17.056;2023-06-10T05:01:04;19.90;65.80
45233;DHT22;30969;51.052;17.056;2023-06-10T05:06:18;19.90;65.90
45233;DHT22;30969;51.052;17.056;2023-06-10T05:11:26;19.90;65.80
45233;DHT22;30969;51.052;17.056;2023-06-10T05:16:30;19.90;65.60
45233;DHT22;30969;51.052;17.056;2023-06-10T05:21:34;19.90;65.80
45233;DHT22;30969;51.052;17.056;2023-06-10T05:26:41;19.90;66.00
45233;DHT22;30969;51.052;17.056;2023-06-10T05:31:49;20.00;65.90
45233;DHT22;30969;51.052;17.056;2023-06-10T05:36:55;20.00;65.60
45233;DHT22;30969;51.052;17.056;2023-06-10T05:42:01;20.10;65.60
45233;DHT22;30969;51.052;17.056;2023-06-10T05:47:06;20.20;65.80
45233;DHT22;30969;51.052;17.056;2023-06-10T05:52:11;20.20;66.10
45233;DHT22;30969;51.052;17.056;2023-06-10T05:57:17;20.30;66.40
45233;DHT22;30969;51.052;17.056;2023-06-10T06:02:22;20.30;66.70
45233;DHT22;30969;51.052;17.056;2023-06-10T06:07:30;20.50;66.80
45233;DHT22;30969;51.052;17.056;2023-06-10T06:12:36;20.50;66.80
45233;DHT22;30969;51.052;17.056;2023-06-10T06:17:41;20.60;66.80
45233;DHT22;30969;51.052;17.056;2023-06-10T06:22:45;20.60;66.80
45233;DHT22;30969;51.052;17.056;2023-06-10T06:27:50;20.70;66.80
45233;DHT22;30969;51.052;17.056;2023-06-10T06:32:53;20.70;66.80
45233;DHT22;30969;51.052;17.056;2023-06-10T06:37:57;20.80;67.00
45233;DHT22;30969;51.052;17.056;2023-06-10T06:43:03;20.90;66.80
45233;DHT22;30969;51.052;17.056;2023-06-10T06:48:06;20.90;66.60
45233;DHT22;30969;51.052;17.056;2023-06-10T06:53:10;21.00;66.50
45233;DHT22;30969;51.052;17.056;2023-06-10T06:58:15;21.00;66.60
45233;DHT22;30969;51.052;17.056;2023-06-10T07:03:19;21.10;66.70
45233;DHT22;30969;51.052;17.056;2023-06-10T07:08:22;21.10;66.80
45233;DHT22;30969;51.052;17.056;2023-06-10T07:13:27;21.20;66.90
45233;DHT22;30969;51.052;17.056;2023-06-10T07:18:31;21.30;67.00
45233;DHT22;30969;51.052;17.056;2023-06-10T07:23:34;21.30;67.00
45233;DHT22;30969;51.052;17.056;2023-06-10T07:28:40;21.40;67.00
45233;DHT22;30969;51.052;17.056;2023-06-10T07:33:44;21.40;66.80
45233;DHT22;30969;51.052;17.056;2023-06-10T07:38:48;21.40;66.80
45233;DHT22;30969;51.052;17.056;2023-06-10T07:43:54;21.40;66.90
45233;DHT22;30969;51.052;17.056;2023-06-10T07:48:58;21.50;67.20
45233;DHT22;30969;51.052;17.056;2023-06-10T07:54:03;21.50;67.30
45233;DHT22;30969;51.052;17.056;2023-06-10T07:59:08;21.50;67.40
45233;DHT22;30969;51.052;17.056;2023-06-10T08:04:12;21.60;67.40
45233;DHT22;30969;51.052;17.056;2023-06-10T08:09:16;21.60;67.40
45233;DHT22;30969;51.052;17.056;2023-06-10T08:14:21;21.70;67.20
45233;DHT22;30969;51.052;17.056;2023-06-10T08:19:25;21.70;67.10
45233;DHT22;30969;51.052;17.056;2023-06-10T08:24:29;21.80;67.10
45233;DHT22;30969;51.052;17.056;2023-06-10T08:29:34;21.90;67.00
45233;DHT22;30969;51.052;17.056;2023-06-10T08:34:37;22.00;66.80
45233;DHT22;30969;51.052;17.056;2023-06-10T08:39:41;22.00;66.80
45233;DHT22;30969;51.052;17.056;2023-06-10T08:44:46;22.20;66.80
45233;DHT22;30969;51.052;17.056;2023-06-10T08:49:53;22.30;66.70
45233;DHT22;30969;51.052;17.056;2023-06-10T08:55:01;22.40;66.30
45233;DHT22;30969;51.052;17.056;2023-06-10T09:00:09;22.40;65.90
45233;DHT22;30969;51.052;17.056;2023-06-10T09:05:13;22.50;65.60
45233;DHT22;30969;51.052;17.056;2023-06-10T09:10:17;22.60;65.20
45233;DHT22;30969;51.052;17.056;2023-06-10T09:15:22;22.70;65.00
45233;DHT22;30969;51.052;17.056;2023-06-10T09:20:25;22.70;64.70
45233;DHT22;30969;51.052;17.056;2023-06-10T09:25:36;22.80;64.00
45233;DHT22;30969;51.052;17.056;2023-06-10T09:30:41;22.80;63.10
45233;DHT22;30969;51.052;17.056;2023-06-10T09:35:46;22.90;62.60
45233;DHT22;30969;51.052;17.056;2023-06-10T09:40:51;23.00;62.40
45233;DHT22;30969;51.052;17.056;2023-06-10T09:45:57;23.10;62.30
45233;DHT22;30969;51.052;17.056;2023-06-10T09:51:00;23.10;62.10
45233;DHT22;30969;51.052;17.056;2023-06-10T09:56:05;23.20;62.10
45233;DHT22;30969;51.052;17.056;2023-06-10T10:01:14;23.30;62.10
45233;DHT22;30969;51.052;17.056;2023-06-10T10:06:19;23.30;61.90
45233;DHT22;30969;51.052;17.056;2023-06-10T10:11:24;23.40;61.60
45233;DHT22;30969;51.052;17.056;2023-06-10T10:16:35;23.50;61.40
45233;DHT22;30969;51.052;17.056;2023-06-10T10:21:44;23.50;61.20
45233;DHT22;30969;51.052;17.056;2023-06-10T10:26:50;23.60;61.00
45233;DHT22;30969;51.052;17.056;2023-06-10T10:32:00;23.80;61.10
45233;DHT22;30969;51.052;17.056;2023-06-10T10:37:04;23.90;60.80
45233;DHT22;30969;51.052;17.056;2023-06-10T10:42:12;23.90;60.50
45233;DHT22;30969;51.052;17.056;2023-06-10T10:47:21;24.00;60.30
45233;DHT22;30969;51.052;17.056;2023-06-10T10:52:25;24.00;60.20
45233;DHT22;30969;51.052;17.056;2023-06-10T10:57:30;24.00;60.00
45233;DHT22;30969;51.052;17.056;2023-06-10T11:02:37;24.00;60.00
45233;DHT22;30969;51.052;17.056;2023-06-10T11:07:53;23.90;60.00
45233;DHT22;30969;51.052;17.056;2023-06-10T11:12:58;23.90;60.00
45233;DHT22;30969;51.052;17.056;2023-06-10T11:18:11;23.90;60.00
45233;DHT22;30969;51.052;17.056;2023-06-10T11:23:38;23.80;60.20
45233;DHT22;30969;51.052;17.056;2023-06-10T11:34:06;23.80;60.30
45233;DHT22;30969;51.052;17.056;2023-06-10T11:39:10;23.80;60.40
45233;DHT22;30969;51.052;17.056;2023-06-10T11:44:14;23.80;60.60
45233;DHT22;30969;51.052;17.056;2023-06-10T11:49:23;23.80;60.70
45233;DHT22;30969;51.052;17.056;2023-06-10T11:54:28;23.90;60.70
45233;DHT22;30969;51.052;17.056;2023-06-10T11:59:32;23.90;60.80
45233;DHT22;30969;51.052;17.056;2023-06-10T12:04:37;24.10;60.80
45233;DHT22;30969;51.052;17.056;2023-06-10T12:09:41;24.20;61.00
45233;DHT22;30969;51.052;17.056;2023-06-10T12:14:52;24.30;61.30
45233;DHT22;30969;51.052;17.056;2023-06-10T12:20:25;24.50;61.00
45233;DHT22;30969;51.052;17.056;2023-06-10T12:25:30;24.70;60.20
45233;DHT22;30969;51.052;17.056;2023-06-10T12:30:34;24.80;59.80
45233;DHT22;30969;51.052;17.056;2023-06-10T12:35:47;25.00;59.70
45233;DHT22;30969;51.052;17.056;2023-06-10T12:40:51;25.20;59.80
45233;DHT22;30969;51.052;17.056;2023-06-10T12:45:55;25.40;59.70
45233;DHT22;30969;51.052;17.056;2023-06-10T12:51:00;25.60;59.60
45233;DHT22;30969;51.052;17.056;2023-06-10T12:56:04;25.80;59.40
45233;DHT22;30969;51.052;17.056;2023-06-10T13:01:07;26.10;59.50
45233;DHT22;30969;51.052;17.056;2023-06-10T13:06:13;26.30;58.60
45233;DHT22;30969;51.052;17.056;2023-06-10T13:11:16;26.60;57.80
45233;DHT22;30969;51.052;17.056;2023-06-10T13:16:20;26.80;54.30
45233;DHT22;30969;51.052;17.056;2023-06-10T13:21:25;26.80;47.20
45233;DHT22;30969;51.052;17.056;2023-06-10T13:26:29;26.90;47.50
45233;DHT22;30969;51.052;17.056;2023-06-10T13:31:33;27.00;43.60
45233;DHT22;30969;51.052;17.056;2023-06-10T13:36:38;27.10;43.60
45233;DHT22;30969;51.052;17.056;2023-06-10T13:41:41;27.20;43.80
45233;DHT22;30969;51.052;17.056;2023-06-10T13:46:45;27.30;42.50
45233;DHT22;30969;51.052;17.056;2023-06-10T13:51:52;27.30;40.20
45233;DHT22;30969;51.052;17.056;2023-06-10T13:56:56;27.40;38.90
45233;DHT22;30969;51.052;17.056;2023-06-10T14:01:59;27.50;38.20
45233;DHT22;30969;51.052;17.056;2023-06-10T14:07:06;27.50;37.50
45233;DHT22;30969;51.052;17.056;2023-06-10T14:12:09;27.70;36.30
45233;DHT22;30969;51.052;17.056;2023-06-10T14:17:13;27.90;33.40
45233;DHT22;30969;51.052;17.056;2023-06-10T14:22:18;28.20;32.60
45233;DHT22;30969;51.052;17.056;2023-06-10T14:27:22;28.50;31.60
45233;DHT22;30969;51.052;17.056;2023-06-10T14:32:25;28.70;30.80
45233;DHT22;30969;51.052;17.056;2023-06-10T14:37:31;28.90;30.90
45233;DHT22;30969;51.052;17.056;2023-06-10T14:42:34;29.10;31.20
45233;DHT22;30969;51.052;17.056;2023-06-10T14:47:40;29.30;31.30
45233;DHT22;30969;51.052;17.056;2023-06-10T14:52:45;29.50;31.70
45233;DHT22;30969;51.052;17.056;2023-06-10T14:57:53;29.80;31.60
45233;DHT22;30969;51.052;17.056;2023-06-10T15:02:57;29.80;31.20
45233;DHT22;30969;51.052;17.056;2023-06-10T15:08:03;29.80;30.90
45233;DHT22;30969;51.052;17.056;2023-06-10T15:13:07;29.90;30.80
45233;DHT22;30969;51.052;17.056;2023-06-10T15:18:11;30.00;30.60
45233;DHT22;30969;51.052;17.056;2023-06-10T15:23:17;30.20;30.00
45233;DHT22;30969;51.052;17.056;2023-06-10T15:28:20;30.30;29.60
45233;DHT22;30969;51.052;17.056;2023-06-10T15:33:25;30.30;29.00
45233;DHT22;30969;51.052;17.056;2023-06-10T15:43:28;30.50;28.30
45233;DHT22;30969;51.052;17.056;2023-06-10T15:48:31;30.70;27.30
45233;DHT22;30969;51.052;17.056;2023-06-10T15:53:35;30.70;27.90
45233;DHT22;30969;51.052;17.056;2023-06-10T15:58:41;30.80;27.50
45233;DHT22;30969;51.052;17.056;2023-06-10T16:03:48;31.00;26.80
45233;DHT22;30969;51.052;17.056;2023-06-10T16:08:53;31.20;25.70
45233;DHT22;30969;51.052;17.056;2023-06-10T16:14:00;31.60;24.90
45233;DHT22;30969;51.052;17.056;2023-06-10T16:19:18;32.00;23.60
45233;DHT22;30969;51.052;17.056;2023-06-10T16:24:22;32.40;22.80
45233;DHT22;30969;51.052;17.056;2023-06-10T16:29:29;32.90;22.50
45233;DHT22;30969;51.052;17.056;2023-06-10T16:34:33;33.40;22.30
45233;DHT22;30969;51.052;17.056;2023-06-10T16:39:38;33.80;22.00
45233;DHT22;30969;51.052;17.056;2023-06-10T16:44:44;34.00;21.90
45233;DHT22;30969;51.052;17.056;2023-06-10T16:49:47;34.10;23.40
45233;DHT22;30969;51.052;17.056;2023-06-10T16:54:52;34.00;24.30
45233;DHT22;30969;51.052;17.056;2023-06-10T16:59:58;33.70;24.80
45233;DHT22;30969;51.052;17.056;2023-06-10T17:05:01;33.60;25.10
45233;DHT22;30969;51.052;17.056;2023-06-10T17:10:06;33.40;25.50
45233;DHT22;30969;51.052;17.056;2023-06-10T17:15:11;33.10;26.00
45233;DHT22;30969;51.052;17.056;2023-06-10T17:20:14;32.70;26.60
45233;DHT22;30969;51.052;17.056;2023-06-10T17:25:18;32.30;26.80
45233;DHT22;30969;51.052;17.056;2023-06-10T17:30:23;31.90;27.10
45233;DHT22;30969;51.052;17.056;2023-06-10T17:35:27;31.50;27.20
45233;DHT22;30969;51.052;17.056;2023-06-10T17:40:30;31.10;27.40
45233;DHT22;30969;51.052;17.056;2023-06-10T17:45:38;30.70;27.70
45233;DHT22;30969;51.052;17.056;2023-06-10T17:50:41;30.40;28.00
45233;DHT22;30969;51.052;17.056;2023-06-10T17:55:45;30.10;28.00
45233;DHT22;30969;51.052;17.056;2023-06-10T18:00:51;29.80;28.30
45233;DHT22;30969;51.052;17.056;2023-06-10T18:05:55;29.60;28.70
45233;DHT22;30969;51.052;17.056;2023-06-10T18:10:59;29.30;28.60
45233;DHT22;30969;51.052;17.056;2023-06-10T18:16:06;29.20;28.90
45233;DHT22;30969;51.052;17.056;2023-06-10T18:21:10;28.90;28.90
45233;DHT22;30969;51.052;17.056;2023-06-10T18:26:14;28.70;29.20
45233;DHT22;30969;51.052;17.056;2023-06-10T18:31:20;28.50;29.20
45233;DHT22;30969;51.052;17.056;2023-06-10T18:36:24;28.30;29.50
45233;DHT22;30969;51.052;17.056;2023-06-10T18:41:28;28.10;29.60
45233;DHT22;30969;51.052;17.056;2023-06-10T18:46:33;27.90;29.80
45233;DHT22;30969;51.052;17.056;2023-06-10T18:51:37;27.70;30.00
45233;DHT22;30969;51.052;17.056;2023-06-10T18:56:40;27.50;30.00
45233;DHT22;30969;51.052;17.056;2023-06-10T19:01:45;27.30;30.00
45233;DHT22;30969;51.052;17.056;2023-06-10T19:06:49;27.20;30.30
45233;DHT22;30969;51.052;17.056;2023-06-10T19:11:56;27.00;30.30
45233;DHT22;30969;51.052;17.056;2023-06-10T19:17:01;26.80;30.50
45233;DHT22;30969;51.052;17.056;2023-06-10T19:22:07;26.60;30.60
45233;DHT22;30969;51.052;17.056;2023-06-10T19:27:10;26.40;30.80
45233;DHT22;30969;51.052;17.056;2023-06-10T19:32:16;26.30;30.80
45233;DHT22;30969;51.052;17.056;2023-06-10T19:37:19;26.10;30.80
45233;DHT22;30969;51.052;17.056;2023-06-10T19:42:24;26.00;30.80
45233;DHT22;30969;51.052;17.056;2023-06-10T19:47:32;25.90;31.10
45233;DHT22;30969;51.052;17.056;2023-06-10T19:52:38;25.80;31.30
45233;DHT22;30969;51.052;17.056;2023-06-10T19:57:42;25.70;31.50
45233;DHT22;30969;51.052;17.056;2023-06-10T20:02:47;25.60;31.40
45233;DHT22;30969;51.052;17.056;2023-06-10T20:07:51;25.50;31.40
45233;DHT22;30969;51.052;17.056;2023-06-10T20:12:55;25.40;31.30
45233;DHT22;30969;51.052;17.056;2023-06-10T20:18:00;25.30;31.10
45233;DHT22;30969;51.052;17.056;2023-06-10T20:23:04;25.40;30.90
45233;DHT22;30969;51.052;17.056;2023-06-10T20:28:08;25.40;30.60
45233;DHT22;30969;51.052;17.056;2023-06-10T20:33:13;25.40;30.60
45233;DHT22;30969;51.052;17.056;2023-06-10T20:38:16;25.30;30.70
45233;DHT22;30969;51.052;17.056;2023-06-10T20:43:21;25.20;31.70
45233;DHT22;30969;51.052;17.056;2023-06-10T20:48:25;25.10;30.80
45233;DHT22;30969;51.052;17.056;2023-06-10T20:53:29;25.00;30.90
45233;DHT22;30969;51.052;17.056;2023-06-10T20:58:36;24.80;31.00
45233;DHT22;30969;51.052;17.056;2023-06-10T21:03:41;24.80;30.90
45233;DHT22;30969;51.052;17.056;2023-06-10T21:08:45;24.70;31.20
45233;DHT22;30969;51.052;17.056;2023-06-10T21:13:49;24.60;31.20
45233;DHT22;30969;51.052;17.056;2023-06-10T21:18:53;24.40;31.30
45233;DHT22;30969;51.052;17.056;2023-06-10T21:23:57;24.40;31.60
45233;DHT22;30969;51.052;17.056;2023-06-10T21:29:01;24.30;31.50
45233;DHT22;30969;51.052;17.056;2023-06-10T21:34:06;24.20;31.60
45233;DHT22;30969;51.052;17.056;2023-06-10T21:39:10;24.10;31.80
45233;DHT22;30969;51.052;17.056;2023-06-10T21:44:13;24.10;31.90
45233;DHT22;30969;51.052;17.056;2023-06-10T21:49:18;23.90;31.90
45233;DHT22;30969;51.052;17.056;2023-06-10T21:54:22;23.90;32.10
45233;DHT22;30969;51.052;17.056;2023-06-10T21:59:26;23.80;32.20
45233;DHT22;30969;51.052;17.056;2023-06-10T22:04:31;23.70;32.30
45233;DHT22;30969;51.052;17.056;2023-06-10T22:09:35;23.60;32.40
45233;DHT22;30969;51.052;17.056;2023-06-10T22:14:39;23.50;32.50
45233;DHT22;30969;51.052;17.056;2023-06-10T22:19:45;23.40;32.60
45233;DHT22;30969;51.052;17.056;2023-06-10T22:24:54;23.30;32.70
45233;DHT22;30969;51.052;17.056;2023-06-10T22:29:57;23.30;32.90
45233;DHT22;30969;51.052;17.056;2023-06-10T22:35:04;23.20;33.00
45233;DHT22;30969;51.052;17.056;2023-06-10T22:40:10;23.00;33.10
45233;DHT22;30969;51.052;17.056;2023-06-10T22:45:16;23.00;33.30
45233;DHT22;30969;51.052;17.056;2023-06-10T22:50:21;22.90;33.30
45233;DHT22;30969;51.052;17.056;2023-06-10T22:55:25;22.90;33.40
45233;DHT22;30969;51.052;17.056;2023-06-10T23:00:28;22.80;33.40
45233;DHT22;30969;51.052;17.056;2023-06-10T23:05:33;22.80;33.50
45233;DHT22;30969;51.052;17.056;2023-06-10T23:10:37;22.70;33.60
45233;DHT22;30969;51.052;17.056;2023-06-10T23:15:43;22.60;33.70
45233;DHT22;30969;51.052;17.056;2023-06-10T23:20:48;22.60;33.80
45233;DHT22;30969;51.052;17.056;2023-06-10T23:25:53;22.40;33.90
45233;DHT22;30969;51.052;17.056;2023-06-10T23:30:56;22.40;34.00
45233;DHT22;30969;51.052;17.056;2023-06-10T23:36:01;22.30;34.10
45233;DHT22;30969;51.052;17.056;2023-06-10T23:41:05;22.30;34.20
45233;DHT22;30969;51.052;17.056;2023-06-10T23:46:09;22.20;34.30
45233;DHT22;30969;51.052;17.056;2023-06-10T23:51:14;22.10;34.50
45233;DHT22;30969;51.052;17.056;2023-06-10T23:56:17;22.10;34.60
